sensor_id;sensor_type;location;lat;lon;timestamp;P1;durP1;ratioP1;P2;durP2;ratioP2
30874;SDS011;17581;43.222;27.924;2023-02-28T00:00:47;6.72;;;5.10;;
30874;SDS011;17581;43.222;27.924;2023-02-28T00:03:13;6.38;;;4.93;;
30874;SDS011;17581;43.222;27.924;2023-02-28T00:05:38;8.10;;;4.78;;
30874;SDS011;17581;43.222;27.924;2023-02-28T00:08:04;6.47;;;4.88;;
30874;SDS011;17581;43.222;27.924;2023-02-28T00:10:30;6.18;;;5.10;;
30874;SDS011;17581;43.222;27.924;2023-02-28T00:12:59;5.43;;;4.75;;
30874;SDS011;17581;43.222;27.924;2023-02-28T00:15:28;6.30;;;4.78;;
30874;SDS011;17581;43.222;27.924;2023-02-28T00:17:54;19.30;;;7.90;;
30874;SDS011;17581;43.222;27.924;2023-02-28T00:20:19;6.10;;;4.60;;
30874;SDS011;17581;43.222;27.924;2023-02-28T00:22:46;6.93;;;4.57;;
30874;SDS011;17581;43.222;27.924;2023-02-28T00:25:15;6.28;;;4.57;;
30874;SDS011;17581;43.222;27.924;2023-02-28T00:27:42;8.45;;;5.45;;
30874;SDS011;17581;43.222;27.924;2023-02-28T00:30:09;6.82;;;5.28;;
30874;SDS011;17581;43.222;27.924;2023-02-28T00:32:37;6.07;;;5.20;;
30874;SDS011;17581;43.222;27.924;2023-02-28T00:35:03;5.30;;;4.60;;
30874;SDS011;17581;43.222;27.924;2023-02-28T00:37:29;6.55;;;5.15;;
30874;SDS011;17581;43.222;27.924;2023-02-28T00:39:55;8.80;;;4.72;;
30874;SDS011;17581;43.222;27.924;2023-02-28T00:42:21;10.82;;;7.40;;
30874;SDS011;17581;43.222;27.924;2023-02-28T00:44:46;6.28;;;4.90;;
30874;SDS011;17581;43.222;27.924;2023-02-28T00:47:12;6.32;;;5.30;;
30874;SDS011;17581;43.222;27.924;2023-02-28T00:49:37;6.65;;;4.68;;
30874;SDS011;17581;43.222;27.924;2023-02-28T00:52:03;7.03;;;5.15;;
30874;SDS011;17581;43.222;27.924;2023-02-28T00:54:29;10.23;;;5.50;;
30874;SDS011;17581;43.222;27.924;2023-02-28T00:56:54;5.80;;;5.03;;
30874;SDS011;17581;43.222;27.924;2023-02-28T00:59:19;7.15;;;5.45;;
30874;SDS011;17581;43.222;27.924;2023-02-28T01:01:45;7.40;;;5.30;;
30874;SDS011;17581;43.222;27.924;2023-02-28T01:04:11;7.45;;;5.25;;
30874;SDS011;17581;43.222;27.924;2023-02-28T01:06:38;7.35;;;6.18;;
30874;SDS011;17581;43.222;27.924;2023-02-28T01:09:04;7.28;;;5.60;;
30874;SDS011;17581;43.222;27.924;2023-02-28T01:11:31;10.50;;;5.47;;
30874;SDS011;17581;43.222;27.924;2023-02-28T01:13:58;9.63;;;5.43;;
30874;SDS011;17581;43.222;27.924;2023-02-28T01:16:24;7.85;;;5.60;;
30874;SDS011;17581;43.222;27.924;2023-02-28T01:18:49;7.50;;;6.45;;
30874;SDS011;17581;43.222;27.924;2023-02-28T01:21:15;8.73;;;6.13;;
30874;SDS011;17581;43.222;27.924;2023-02-28T01:23:42;8.65;;;5.60;;
30874;SDS011;17581;43.222;27.924;2023-02-28T01:26:13;6.95;;;5.43;;
30874;SDS011;17581;43.222;27.924;2023-02-28T01:28:40;8.98;;;6.15;;
30874;SDS011;17581;43.222;27.924;2023-02-28T01:31:06;7.25;;;6.22;;
30874;SDS011;17581;43.222;27.924;2023-02-28T01:33:33;10.05;;;5.80;;
30874;SDS011;17581;43.222;27.924;2023-02-28T01:35:59;6.88;;;6.03;;
30874;SDS011;17581;43.222;27.924;2023-02-28T01:38:30;10.50;;;7.10;;
30874;SDS011;17581;43.222;27.924;2023-02-28T01:40:56;8.68;;;6.95;;
30874;SDS011;17581;43.222;27.924;2023-02-28T01:43:23;11.40;;;7.78;;
30874;SDS011;17581;43.222;27.924;2023-02-28T01:45:54;8.83;;;6.70;;
30874;SDS011;17581;43.222;27.924;2023-02-28T01:48:23;9.27;;;7.38;;
30874;SDS011;17581;43.222;27.924;2023-02-28T01:50:52;9.50;;;8.13;;
30874;SDS011;17581;43.222;27.924;2023-02-28T01:53:21;8.63;;;7.47;;
30874;SDS011;17581;43.222;27.924;2023-02-28T01:55:51;10.68;;;7.43;;
30874;SDS011;17581;43.222;27.924;2023-02-28T01:58:20;9.07;;;7.10;;
30874;SDS011;17581;43.222;27.924;2023-02-28T02:00:46;9.82;;;7.70;;
30874;SDS011;17581;43.222;27.924;2023-02-28T02:03:13;8.23;;;6.72;;
30874;SDS011;17581;43.222;27.924;2023-02-28T02:05:44;7.63;;;6.68;;
30874;SDS011;17581;43.222;27.924;2023-02-28T02:08:13;12.38;;;8.85;;
30874;SDS011;17581;43.222;27.924;2023-02-28T02:10:46;9.10;;;7.53;;
30874;SDS011;17581;43.222;27.924;2023-02-28T02:13:21;7.07;;;6.07;;
30874;SDS011;17581;43.222;27.924;2023-02-28T02:19:03;7.75;;;5.68;;
30874;SDS011;17581;43.222;27.924;2023-02-28T02:27:01;6.88;;;6.05;;
30874;SDS011;17581;43.222;27.924;2023-02-28T02:29:44;6.68;;;5.40;;
30874;SDS011;17581;43.222;27.924;2023-02-28T02:35:14;5.35;;;4.85;;
30874;SDS011;17581;43.222;27.924;2023-02-28T02:37:57;7.65;;;5.70;;
30874;SDS011;17581;43.222;27.924;2023-02-28T02:40:25;6.00;;;5.32;;
30874;SDS011;17581;43.222;27.924;2023-02-28T02:45:37;5.63;;;4.90;;
30874;SDS011;17581;43.222;27.924;2023-02-28T02:48:11;4.85;;;4.35;;
30874;SDS011;17581;43.222;27.924;2023-02-28T02:50:45;5.43;;;4.70;;
30874;SDS011;17581;43.222;27.924;2023-02-28T02:53:15;11.25;;;5.10;;
30874;SDS011;17581;43.222;27.924;2023-02-28T02:55:44;5.72;;;5.13;;
30874;SDS011;17581;43.222;27.924;2023-02-28T02:58:14;6.25;;;4.65;;
30874;SDS011;17581;43.222;27.924;2023-02-28T03:00:44;5.97;;;4.10;;
30874;SDS011;17581;43.222;27.924;2023-02-28T03:05:51;4.13;;;3.75;;
30874;SDS011;17581;43.222;27.924;2023-02-28T03:08:17;4.80;;;4.15;;
30874;SDS011;17581;43.222;27.924;2023-02-28T03:10:44;7.70;;;4.35;;
30874;SDS011;17581;43.222;27.924;2023-02-28T03:16:07;4.18;;;3.78;;
30874;SDS011;17581;43.222;27.924;2023-02-28T03:24:08;4.45;;;3.80;;
30874;SDS011;17581;43.222;27.924;2023-02-28T03:26:54;4.82;;;4.32;;
30874;SDS011;17581;43.222;27.924;2023-02-28T03:29:29;5.07;;;4.47;;
30874;SDS011;17581;43.222;27.924;2023-02-28T03:31:58;5.28;;;4.78;;
30874;SDS011;17581;43.222;27.924;2023-02-28T03:34:32;9.13;;;5.13;;
30874;SDS011;17581;43.222;27.924;2023-02-28T03:37:05;5.75;;;4.97;;
30874;SDS011;17581;43.222;27.924;2023-02-28T03:39:38;5.75;;;5.15;;
30874;SDS011;17581;43.222;27.924;2023-02-28T03:42:09;7.50;;;6.43;;
30874;SDS011;17581;43.222;27.924;2023-02-28T03:44:46;8.23;;;6.80;;
30874;SDS011;17581;43.222;27.924;2023-02-28T03:50:03;8.85;;;7.05;;
30874;SDS011;17581;43.222;27.924;2023-02-28T03:52:34;9.65;;;6.93;;
30874;SDS011;17581;43.222;27.924;2023-02-28T03:55:07;9.82;;;7.88;;
30874;SDS011;17581;43.222;27.924;2023-02-28T04:00:19;9.30;;;6.82;;
30874;SDS011;17581;43.222;27.924;2023-02-28T04:02:49;11.00;;;7.15;;
30874;SDS011;17581;43.222;27.924;2023-02-28T04:05:18;9.50;;;7.63;;
30874;SDS011;17581;43.222;27.924;2023-02-28T04:07:44;8.50;;;7.68;;
30874;SDS011;17581;43.222;27.924;2023-02-28T04:10:11;8.40;;;7.00;;
30874;SDS011;17581;43.222;27.924;2023-02-28T04:12:37;11.07;;;7.93;;
30874;SDS011;17581;43.222;27.924;2023-02-28T04:15:03;12.80;;;7.90;;
30874;SDS011;17581;43.222;27.924;2023-02-28T04:17:29;11.38;;;8.45;;
30874;SDS011;17581;43.222;27.924;2023-02-28T04:19:54;12.95;;;9.05;;
30874;SDS011;17581;43.222;27.924;2023-02-28T04:22:22;11.10;;;8.85;;
30874;SDS011;17581;43.222;27.924;2023-02-28T04:24:50;9.15;;;7.45;;
30874;SDS011;17581;43.222;27.924;2023-02-28T04:27:16;9.55;;;7.75;;
30874;SDS011;17581;43.222;27.924;2023-02-28T04:29:41;11.80;;;8.30;;
30874;SDS011;17581;43.222;27.924;2023-02-28T04:32:09;12.38;;;9.48;;
30874;SDS011;17581;43.222;27.924;2023-02-28T04:34:35;13.73;;;7.55;;
30874;SDS011;17581;43.222;27.924;2023-02-28T04:37:00;10.40;;;8.15;;
30874;SDS011;17581;43.222;27.924;2023-02-28T04:39:26;10.15;;;8.50;;
30874;SDS011;17581;43.222;27.924;2023-02-28T04:41:52;11.07;;;8.65;;
30874;SDS011;17581;43.222;27.924;2023-02-28T04:44:17;10.32;;;7.95;;
30874;SDS011;17581;43.222;27.924;2023-02-28T04:46:43;13.48;;;8.65;;
30874;SDS011;17581;43.222;27.924;2023-02-28T04:49:10;12.23;;;8.73;;
30874;SDS011;17581;43.222;27.924;2023-02-28T04:51:37;12.85;;;9.82;;
30874;SDS011;17581;43.222;27.924;2023-02-28T04:54:02;11.45;;;9.93;;
30874;SDS011;17581;43.222;27.924;2023-02-28T04:56:28;15.30;;;11.30;;
30874;SDS011;17581;43.222;27.924;2023-02-28T04:58:53;11.85;;;9.95;;
30874;SDS011;17581;43.222;27.924;2023-02-28T05:01:20;13.80;;;10.07;;
30874;SDS011;17581;43.222;27.924;2023-02-28T05:03:52;16.98;;;11.98;;
30874;SDS011;17581;43.222;27.924;2023-02-28T05:06:19;14.52;;;11.25;;
30874;SDS011;17581;43.222;27.924;2023-02-28T05:08:46;22.25;;;12.80;;
30874;SDS011;17581;43.222;27.924;2023-02-28T05:11:13;23.92;;;14.55;;
30874;SDS011;17581;43.222;27.924;2023-02-28T05:13:44;21.98;;;13.15;;
30874;SDS011;17581;43.222;27.924;2023-02-28T05:16:10;19.85;;;13.27;;
30874;SDS011;17581;43.222;27.924;2023-02-28T05:18:36;24.27;;;14.45;;
30874;SDS011;17581;43.222;27.924;2023-02-28T05:21:02;29.30;;;17.92;;
30874;SDS011;17581;43.222;27.924;2023-02-28T05:23:28;37.17;;;18.35;;
30874;SDS011;17581;43.222;27.924;2023-02-28T05:25:53;25.02;;;17.80;;
30874;SDS011;17581;43.222;27.924;2023-02-28T05:28:19;31.50;;;16.40;;
30874;SDS011;17581;43.222;27.924;2023-02-28T05:30:45;26.50;;;15.80;;
30874;SDS011;17581;43.222;27.924;2023-02-28T05:33:10;37.83;;;15.18;;
30874;SDS011;17581;43.222;27.924;2023-02-28T05:35:38;27.30;;;18.02;;
30874;SDS011;17581;43.222;27.924;2023-02-28T05:38:07;34.25;;;18.95;;
30874;SDS011;17581;43.222;27.924;2023-02-28T05:40:33;27.88;;;17.98;;
30874;SDS011;17581;43.222;27.924;2023-02-28T05:42:59;28.90;;;18.35;;
30874;SDS011;17581;43.222;27.924;2023-02-28T05:45:25;28.30;;;18.20;;
30874;SDS011;17581;43.222;27.924;2023-02-28T05:47:53;30.45;;;18.67;;
30874;SDS011;17581;43.222;27.924;2023-02-28T05:50:20;36.38;;;20.35;;
30874;SDS011;17581;43.222;27.924;2023-02-28T05:52:49;33.95;;;21.90;;
30874;SDS011;17581;43.222;27.924;2023-02-28T05:55:15;32.55;;;21.80;;
30874;SDS011;17581;43.222;27.924;2023-02-28T05:57:41;41.50;;;20.70;;
30874;SDS011;17581;43.222;27.924;2023-02-28T06:00:07;35.15;;;20.95;;
30874;SDS011;17581;43.222;27.924;2023-02-28T06:02:33;38.80;;;20.65;;
30874;SDS011;17581;43.222;27.924;2023-02-28T06:04:59;43.10;;;25.58;;
30874;SDS011;17581;43.222;27.924;2023-02-28T06:07:24;38.72;;;21.60;;
30874;SDS011;17581;43.222;27.924;2023-02-28T06:09:50;42.00;;;24.65;;
30874;SDS011;17581;43.222;27.924;2023-02-28T06:12:15;35.67;;;21.58;;
30874;SDS011;17581;43.222;27.924;2023-02-28T06:14:41;36.15;;;22.92;;
30874;SDS011;17581;43.222;27.924;2023-02-28T06:17:06;31.83;;;21.85;;
30874;SDS011;17581;43.222;27.924;2023-02-28T06:19:31;33.45;;;21.88;;
30874;SDS011;17581;43.222;27.924;2023-02-28T06:21:57;40.78;;;23.45;;
30874;SDS011;17581;43.222;27.924;2023-02-28T06:24:24;36.17;;;21.08;;
30874;SDS011;17581;43.222;27.924;2023-02-28T06:26:53;29.30;;;19.38;;
30874;SDS011;17581;43.222;27.924;2023-02-28T06:29:18;29.67;;;17.95;;
30874;SDS011;17581;43.222;27.924;2023-02-28T06:31:44;30.70;;;20.38;;
30874;SDS011;17581;43.222;27.924;2023-02-28T06:34:11;35.42;;;21.13;;
30874;SDS011;17581;43.222;27.924;2023-02-28T06:36:37;36.25;;;21.05;;
30874;SDS011;17581;43.222;27.924;2023-02-28T06:39:04;52.80;;;30.50;;
30874;SDS011;17581;43.222;27.924;2023-02-28T06:41:31;34.17;;;22.15;;
30874;SDS011;17581;43.222;27.924;2023-02-28T06:43:56;41.80;;;26.50;;
30874;SDS011;17581;43.222;27.924;2023-02-28T06:46:22;39.50;;;20.65;;
30874;SDS011;17581;43.222;27.924;2023-02-28T06:48:48;33.10;;;18.73;;
30874;SDS011;17581;43.222;27.924;2023-02-28T06:51:15;35.42;;;21.60;;
30874;SDS011;17581;43.222;27.924;2023-02-28T06:53:49;33.38;;;19.27;;
30874;SDS011;17581;43.222;27.924;2023-02-28T06:56:15;32.20;;;21.25;;
30874;SDS011;17581;43.222;27.924;2023-02-28T06:58:42;40.58;;;23.70;;
30874;SDS011;17581;43.222;27.924;2023-02-28T07:01:13;44.83;;;24.40;;
30874;SDS011;17581;43.222;27.924;2023-02-28T07:03:38;43.72;;;23.98;;
30874;SDS011;17581;43.222;27.924;2023-02-28T07:06:04;35.13;;;22.88;;
30874;SDS011;17581;43.222;27.924;2023-02-28T07:08:30;36.83;;;20.95;;
30874;SDS011;17581;43.222;27.924;2023-02-28T07:10:56;40.42;;;22.23;;
30874;SDS011;17581;43.222;27.924;2023-02-28T07:13:23;33.55;;;19.90;;
30874;SDS011;17581;43.222;27.924;2023-02-28T07:18:20;26.95;;;19.25;;
30874;SDS011;17581;43.222;27.924;2023-02-28T07:20:45;32.35;;;18.52;;
30874;SDS011;17581;43.222;27.924;2023-02-28T07:23:10;26.55;;;16.05;;
30874;SDS011;17581;43.222;27.924;2023-02-28T07:28:12;26.50;;;17.15;;
30874;SDS011;17581;43.222;27.924;2023-02-28T07:30:38;29.33;;;19.25;;
30874;SDS011;17581;43.222;27.924;2023-02-28T07:33:03;27.73;;;16.65;;
30874;SDS011;17581;43.222;27.924;2023-02-28T07:35:29;24.33;;;16.42;;
30874;SDS011;17581;43.222;27.924;2023-02-28T07:37:55;26.83;;;16.42;;
30874;SDS011;17581;43.222;27.924;2023-02-28T07:40:22;38.80;;;22.48;;
30874;SDS011;17581;43.222;27.924;2023-02-28T07:42:48;28.23;;;17.98;;
30874;SDS011;17581;43.222;27.924;2023-02-28T07:45:13;28.83;;;17.08;;
30874;SDS011;17581;43.222;27.924;2023-02-28T07:47:39;31.17;;;18.30;;
30874;SDS011;17581;43.222;27.924;2023-02-28T07:50:06;22.95;;;15.52;;
30874;SDS011;17581;43.222;27.924;2023-02-28T07:52:33;26.45;;;16.17;;
30874;SDS011;17581;43.222;27.924;2023-02-28T07:54:59;27.15;;;15.75;;
30874;SDS011;17581;43.222;27.924;2023-02-28T07:57:25;42.30;;;19.95;;
30874;SDS011;17581;43.222;27.924;2023-02-28T07:59:50;23.45;;;15.70;;
30874;SDS011;17581;43.222;27.924;2023-02-28T08:02:16;23.55;;;14.68;;
30874;SDS011;17581;43.222;27.924;2023-02-28T08:04:44;21.90;;;14.02;;
30874;SDS011;17581;43.222;27.924;2023-02-28T08:07:10;19.77;;;13.35;;
30874;SDS011;17581;43.222;27.924;2023-02-28T08:09:41;19.20;;;13.75;;
30874;SDS011;17581;43.222;27.924;2023-02-28T08:12:07;19.90;;;13.23;;
30874;SDS011;17581;43.222;27.924;2023-02-28T08:14:34;22.17;;;12.95;;
30874;SDS011;17581;43.222;27.924;2023-02-28T08:17:00;26.75;;;15.15;;
30874;SDS011;17581;43.222;27.924;2023-02-28T08:19:26;21.50;;;13.43;;
30874;SDS011;17581;43.222;27.924;2023-02-28T08:21:51;27.88;;;17.38;;
30874;SDS011;17581;43.222;27.924;2023-02-28T08:24:17;53.55;;;30.92;;
30874;SDS011;17581;43.222;27.924;2023-02-28T08:26:42;33.17;;;18.98;;
30874;SDS011;17581;43.222;27.924;2023-02-28T08:29:08;25.35;;;16.55;;
30874;SDS011;17581;43.222;27.924;2023-02-28T08:31:34;20.00;;;14.35;;
30874;SDS011;17581;43.222;27.924;2023-02-28T08:34:08;18.23;;;13.45;;
30874;SDS011;17581;43.222;27.924;2023-02-28T08:36:36;19.58;;;14.98;;
30874;SDS011;17581;43.222;27.924;2023-02-28T08:39:03;26.25;;;17.05;;
30874;SDS011;17581;43.222;27.924;2023-02-28T08:41:29;26.17;;;16.73;;
30874;SDS011;17581;43.222;27.924;2023-02-28T08:43:54;27.10;;;16.08;;
30874;SDS011;17581;43.222;27.924;2023-02-28T08:46:20;20.67;;;14.25;;
30874;SDS011;17581;43.222;27.924;2023-02-28T08:48:46;30.50;;;18.20;;
30874;SDS011;17581;43.222;27.924;2023-02-28T08:51:15;19.02;;;13.07;;
30874;SDS011;17581;43.222;27.924;2023-02-28T08:53:43;19.63;;;12.85;;
30874;SDS011;17581;43.222;27.924;2023-02-28T08:56:10;18.45;;;12.43;;
30874;SDS011;17581;43.222;27.924;2023-02-28T08:58:37;21.25;;;12.90;;
30874;SDS011;17581;43.222;27.924;2023-02-28T09:01:13;18.60;;;12.18;;
30874;SDS011;17581;43.222;27.924;2023-02-28T09:03:47;20.83;;;13.70;;
30874;SDS011;17581;43.222;27.924;2023-02-28T09:06:14;20.25;;;14.95;;
30874;SDS011;17581;43.222;27.924;2023-02-28T09:08:42;26.75;;;16.42;;
30874;SDS011;17581;43.222;27.924;2023-02-28T09:11:08;21.75;;;14.93;;
30874;SDS011;17581;43.222;27.924;2023-02-28T09:13:34;21.35;;;13.27;;
30874;SDS011;17581;43.222;27.924;2023-02-28T09:16:01;17.80;;;12.48;;
30874;SDS011;17581;43.222;27.924;2023-02-28T09:18:28;15.98;;;11.77;;
30874;SDS011;17581;43.222;27.924;2023-02-28T09:20:54;16.25;;;12.35;;
30874;SDS011;17581;43.222;27.924;2023-02-28T09:23:19;20.70;;;13.75;;
30874;SDS011;17581;43.222;27.924;2023-02-28T09:25:46;20.13;;;12.32;;
30874;SDS011;17581;43.222;27.924;2023-02-28T09:28:15;18.42;;;10.82;;
30874;SDS011;17581;43.222;27.924;2023-02-28T09:30:44;17.13;;;10.82;;
30874;SDS011;17581;43.222;27.924;2023-02-28T09:33:11;28.60;;;12.43;;
30874;SDS011;17581;43.222;27.924;2023-02-28T09:35:37;17.73;;;11.07;;
30874;SDS011;17581;43.222;27.924;2023-02-28T09:38:03;19.90;;;11.40;;
30874;SDS011;17581;43.222;27.924;2023-02-28T09:40:29;22.20;;;12.45;;
30874;SDS011;17581;43.222;27.924;2023-02-28T09:42:56;20.13;;;12.20;;
30874;SDS011;17581;43.222;27.924;2023-02-28T09:45:36;18.75;;;12.77;;
30874;SDS011;17581;43.222;27.924;2023-02-28T09:48:11;20.65;;;12.02;;
30874;SDS011;17581;43.222;27.924;2023-02-28T09:51:21;19.55;;;11.77;;
30874;SDS011;17581;43.222;27.924;2023-02-28T09:53:51;18.52;;;11.80;;
30874;SDS011;17581;43.222;27.924;2023-02-28T09:56:25;22.13;;;11.90;;
30874;SDS011;17581;43.222;27.924;2023-02-28T10:04:42;20.23;;;13.48;;
30874;SDS011;17581;43.222;27.924;2023-02-28T10:07:16;21.60;;;13.40;;
30874;SDS011;17581;43.222;27.924;2023-02-28T10:09:49;28.40;;;16.95;;
30874;SDS011;17581;43.222;27.924;2023-02-28T10:14:46;17.20;;;11.57;;
30874;SDS011;17581;43.222;27.924;2023-02-28T10:17:19;20.75;;;12.82;;
30874;SDS011;17581;43.222;27.924;2023-02-28T10:22:19;19.27;;;11.88;;
30874;SDS011;17581;43.222;27.924;2023-02-28T10:24:52;15.27;;;10.68;;
30874;SDS011;17581;43.222;27.924;2023-02-28T10:27:22;16.35;;;10.40;;
30874;SDS011;17581;43.222;27.924;2023-02-28T10:29:50;18.98;;;11.73;;
30874;SDS011;17581;43.222;27.924;2023-02-28T10:32:39;17.23;;;10.10;;
30874;SDS011;17581;43.222;27.924;2023-02-28T10:35:15;19.88;;;10.73;;
30874;SDS011;17581;43.222;27.924;2023-02-28T10:37:41;15.32;;;10.88;;
30874;SDS011;17581;43.222;27.924;2023-02-28T10:42:42;15.75;;;11.10;;
30874;SDS011;17581;43.222;27.924;2023-02-28T10:45:25;15.35;;;10.27;;
30874;SDS011;17581;43.222;27.924;2023-02-28T10:47:54;18.10;;;11.20;;
30874;SDS011;17581;43.222;27.924;2023-02-28T10:56:09;28.23;;;11.13;;
30874;SDS011;17581;43.222;27.924;2023-02-28T11:01:17;21.10;;;13.75;;
30874;SDS011;17581;43.222;27.924;2023-02-28T11:03:45;15.52;;;11.18;;
30874;SDS011;17581;43.222;27.924;2023-02-28T11:06:33;24.52;;;11.93;;
30874;SDS011;17581;43.222;27.924;2023-02-28T11:08:59;16.38;;;11.90;;
30874;SDS011;17581;43.222;27.924;2023-02-28T11:11:28;20.48;;;11.32;;
30874;SDS011;17581;43.222;27.924;2023-02-28T11:13:57;19.10;;;12.63;;
30874;SDS011;17581;43.222;27.924;2023-02-28T11:16:33;18.98;;;12.18;;
30874;SDS011;17581;43.222;27.924;2023-02-28T11:19:02;18.80;;;11.95;;
30874;SDS011;17581;43.222;27.924;2023-02-28T11:21:35;25.92;;;11.68;;
30874;SDS011;17581;43.222;27.924;2023-02-28T11:26:47;19.17;;;12.52;;
30874;SDS011;17581;43.222;27.924;2023-02-28T11:29:20;18.52;;;12.00;;
30874;SDS011;17581;43.222;27.924;2023-02-28T11:34:40;21.27;;;12.40;;
30874;SDS011;17581;43.222;27.924;2023-02-28T11:37:11;19.15;;;13.70;;
30874;SDS011;17581;43.222;27.924;2023-02-28T11:39:38;16.90;;;11.73;;
30874;SDS011;17581;43.222;27.924;2023-02-28T11:42:07;16.92;;;12.23;;
30874;SDS011;17581;43.222;27.924;2023-02-28T11:47:37;19.63;;;11.68;;
30874;SDS011;17581;43.222;27.924;2023-02-28T11:50:27;18.67;;;10.70;;
30874;SDS011;17581;43.222;27.924;2023-02-28T11:53:24;71.20;;;17.70;;
30874;SDS011;17581;43.222;27.924;2023-02-28T11:58:42;24.27;;;13.25;;
30874;SDS011;17581;43.222;27.924;2023-02-28T12:01:21;26.45;;;12.32;;
30874;SDS011;17581;43.222;27.924;2023-02-28T12:04:16;19.42;;;12.32;;
30874;SDS011;17581;43.222;27.924;2023-02-28T12:07:00;23.10;;;11.38;;
30874;SDS011;17581;43.222;27.924;2023-02-28T12:23:43;26.77;;;13.98;;
30874;SDS011;17581;43.222;27.924;2023-02-28T12:26:34;21.20;;;11.73;;
30874;SDS011;17581;43.222;27.924;2023-02-28T12:29:10;22.52;;;11.43;;
30874;SDS011;17581;43.222;27.924;2023-02-28T12:31:53;20.33;;;12.52;;
30874;SDS011;17581;43.222;27.924;2023-02-28T12:34:33;22.35;;;13.02;;
30874;SDS011;17581;43.222;27.924;2023-02-28T12:37:07;16.85;;;11.13;;
30874;SDS011;17581;43.222;27.924;2023-02-28T12:39:41;18.85;;;13.20;;
30874;SDS011;17581;43.222;27.924;2023-02-28T12:42:17;22.05;;;12.45;;
30874;SDS011;17581;43.222;27.924;2023-02-28T12:44:51;25.25;;;14.02;;
30874;SDS011;17581;43.222;27.924;2023-02-28T12:58:05;19.13;;;12.80;;
30874;SDS011;17581;43.222;27.924;2023-02-28T13:06:22;20.42;;;13.68;;
30874;SDS011;17581;43.222;27.924;2023-02-28T13:13:57;24.85;;;14.32;;
30874;SDS011;17581;43.222;27.924;2023-02-28T13:16:28;25.63;;;14.45;;
30874;SDS011;17581;43.222;27.924;2023-02-28T13:19:35;25.38;;;15.02;;
30874;SDS011;17581;43.222;27.924;2023-02-28T13:22:03;27.75;;;15.50;;
30874;SDS011;17581;43.222;27.924;2023-02-28T13:24:40;24.42;;;16.65;;
30874;SDS011;17581;43.222;27.924;2023-02-28T13:34:37;23.55;;;16.40;;
30874;SDS011;17581;43.222;27.924;2023-02-28T13:42:36;30.75;;;16.67;;
30874;SDS011;17581;43.222;27.924;2023-02-28T13:47:41;30.88;;;17.67;;
30874;SDS011;17581;43.222;27.924;2023-02-28T13:55:24;26.52;;;16.45;;
30874;SDS011;17581;43.222;27.924;2023-02-28T14:08:57;35.45;;;20.38;;
30874;SDS011;17581;43.222;27.924;2023-02-28T14:11:27;30.52;;;18.08;;
30874;SDS011;17581;43.222;27.924;2023-02-28T14:13:56;25.98;;;16.77;;
30874;SDS011;17581;43.222;27.924;2023-02-28T14:16:26;30.55;;;18.65;;
30874;SDS011;17581;43.222;27.924;2023-02-28T14:21:56;33.85;;;18.70;;
30874;SDS011;17581;43.222;27.924;2023-02-28T14:38:38;28.88;;;18.30;;
30874;SDS011;17581;43.222;27.924;2023-02-28T14:41:13;37.65;;;19.25;;
30874;SDS011;17581;43.222;27.924;2023-02-28T14:43:47;33.85;;;18.17;;
30874;SDS011;17581;43.222;27.924;2023-02-28T14:46:15;55.25;;;25.77;;
30874;SDS011;17581;43.222;27.924;2023-02-28T14:48:44;35.78;;;19.90;;
30874;SDS011;17581;43.222;27.924;2023-02-28T14:51:11;35.80;;;18.17;;
30874;SDS011;17581;43.222;27.924;2023-02-28T14:53:43;34.83;;;18.85;;
30874;SDS011;17581;43.222;27.924;2023-02-28T14:56:21;37.97;;;15.73;;
30874;SDS011;17581;43.222;27.924;2023-02-28T14:58:54;37.25;;;21.75;;
30874;SDS011;17581;43.222;27.924;2023-02-28T15:01:22;25.03;;;15.53;;
30874;SDS011;17581;43.222;27.924;2023-02-28T15:03:48;28.38;;;17.63;;
30874;SDS011;17581;43.222;27.924;2023-02-28T15:06:23;33.65;;;16.58;;
30874;SDS011;17581;43.222;27.924;2023-02-28T15:09:06;28.17;;;16.77;;
30874;SDS011;17581;43.222;27.924;2023-02-28T15:11:33;25.25;;;15.32;;
30874;SDS011;17581;43.222;27.924;2023-02-28T15:13:59;35.33;;;16.70;;
30874;SDS011;17581;43.222;27.924;2023-02-28T15:16:28;33.55;;;15.50;;
30874;SDS011;17581;43.222;27.924;2023-02-28T15:22:02;27.35;;;15.80;;
30874;SDS011;17581;43.222;27.924;2023-02-28T15:24:38;26.33;;;16.08;;
30874;SDS011;17581;43.222;27.924;2023-02-28T15:27:29;32.38;;;18.70;;
30874;SDS011;17581;43.222;27.924;2023-02-28T15:29:57;36.60;;;20.17;;
30874;SDS011;17581;43.222;27.924;2023-02-28T15:32:35;39.85;;;16.83;;
30874;SDS011;17581;43.222;27.924;2023-02-28T15:35:26;29.48;;;15.98;;
30874;SDS011;17581;43.222;27.924;2023-02-28T15:40:38;29.70;;;17.88;;
30874;SDS011;17581;43.222;27.924;2023-02-28T15:43:14;40.25;;;18.27;;
30874;SDS011;17581;43.222;27.924;2023-02-28T15:45:41;39.33;;;19.15;;
30874;SDS011;17581;43.222;27.924;2023-02-28T15:48:14;32.60;;;18.00;;
30874;SDS011;17581;43.222;27.924;2023-02-28T15:50:43;32.38;;;18.15;;
30874;SDS011;17581;43.222;27.924;2023-02-28T15:53:13;36.95;;;17.55;;
30874;SDS011;17581;43.222;27.924;2023-02-28T15:58:08;28.33;;;17.10;;
30874;SDS011;17581;43.222;27.924;2023-02-28T16:00:38;29.38;;;15.23;;
30874;SDS011;17581;43.222;27.924;2023-02-28T16:03:23;31.60;;;17.10;;
30874;SDS011;17581;43.222;27.924;2023-02-28T16:06:09;41.78;;;17.40;;
30874;SDS011;17581;43.222;27.924;2023-02-28T16:08:49;41.65;;;15.88;;
30874;SDS011;17581;43.222;27.924;2023-02-28T16:11:16;31.63;;;18.50;;
30874;SDS011;17581;43.222;27.924;2023-02-28T16:13:42;32.83;;;18.75;;
30874;SDS011;17581;43.222;27.924;2023-02-28T16:16:07;33.97;;;17.35;;
30874;SDS011;17581;43.222;27.924;2023-02-28T16:18:33;40.83;;;17.20;;
30874;SDS011;17581;43.222;27.924;2023-02-28T16:20:58;34.58;;;18.73;;
30874;SDS011;17581;43.222;27.924;2023-02-28T16:23:24;36.78;;;18.02;;
30874;SDS011;17581;43.222;27.924;2023-02-28T16:25:49;38.60;;;19.52;;
30874;SDS011;17581;43.222;27.924;2023-02-28T16:28:25;35.65;;;19.00;;
30874;SDS011;17581;43.222;27.924;2023-02-28T16:30:56;35.08;;;18.23;;
30874;SDS011;17581;43.222;27.924;2023-02-28T16:33:22;28.52;;;16.38;;
30874;SDS011;17581;43.222;27.924;2023-02-28T16:35:47;30.55;;;17.35;;
30874;SDS011;17581;43.222;27.924;2023-02-28T16:38:14;33.85;;;16.40;;
30874;SDS011;17581;43.222;27.924;2023-02-28T16:40:39;35.25;;;16.75;;
30874;SDS011;17581;43.222;27.924;2023-02-28T16:43:07;31.70;;;15.95;;
30874;SDS011;17581;43.222;27.924;2023-02-28T16:45:40;30.45;;;17.10;;
30874;SDS011;17581;43.222;27.924;2023-02-28T16:48:07;31.15;;;16.00;;
30874;SDS011;17581;43.222;27.924;2023-02-28T16:50:38;36.78;;;16.23;;
30874;SDS011;17581;43.222;27.924;2023-02-28T16:53:03;29.40;;;14.63;;
30874;SDS011;17581;43.222;27.924;2023-02-28T16:55:29;33.92;;;17.30;;
30874;SDS011;17581;43.222;27.924;2023-02-28T16:57:58;29.17;;;14.60;;
30874;SDS011;17581;43.222;27.924;2023-02-28T17:00:26;30.13;;;15.73;;
30874;SDS011;17581;43.222;27.924;2023-02-28T17:02:53;36.75;;;19.38;;
30874;SDS011;17581;43.222;27.924;2023-02-28T17:05:19;54.42;;;27.35;;
30874;SDS011;17581;43.222;27.924;2023-02-28T17:07:45;43.13;;;19.55;;
30874;SDS011;17581;43.222;27.924;2023-02-28T17:12:47;34.35;;;20.77;;